Impacts METAR Board
IDs:

KAPF - Naples Muni, FL, US

Updated at: 2100 UTC 21 Sep 2021
Potential Impact None Slight Moderate High
Time 21/09Z 21/10Z 21/11Z 21/12Z 21/13Z 21/14Z 21/15Z 21/16Z 21/17Z 21/18Z 21/19Z 21/20Z 21/21Z
Temp76 76 76 77 80 84 86 88 77 77 79 78 78
Dewpt74 75 74 75 75 77 76 75 74 75 77 76 76
Altim29.97 29.98 29.99 30.01 30.02 30.03 30.05 30.04 30.04 30.03 30.01 30.01 30.01
VIS10 10 10 10 10 10 10 10 2 3 5 7 7
CIG-- -- -- -- -- -- -- 100 16 41 100 95 20
CoverFEWCLRCLRCLRCLRCLRCLRBKNBKNOVCOVCBKNOVC
FltCatVFRVFRVFRVFRVFRVFRVFRVFRIFRMVFRMVFRVFRMVFR
WX----------------TSRA BRVCTS RA BRVCTS -RA BR-RA-RA
WDir60504050506012013030010011060
WSpd4 5 6 5 6 6 3 5 8 5 0 3 8
WGst-- -- -- -- -- -- -- -- -- -- -- -- --
Raw hourly METARs
KAPF 210853Z AUTO 06004KT 10SM FEW006 24/23 A2997 RMK AO2 SLP147 T02440233 55006
KAPF 210953Z 05005KT 10SM CLR 24/24 A2998 RMK AO2 SLP149 T02440239
KAPF 211053Z 04006KT 10SM CLR 24/23 A2999 RMK AO2 SLP155 T02440233
KAPF 211153Z 05005KT 10SM CLR 25/24 A3001 RMK AO2 SLP162 T02500239 10250 20239 53015
KAPF 211253Z 05006KT 10SM CLR 27/24 A3002 RMK AO2 SLP164 T02670239
KAPF 211353Z 06006KT 10SM CLR 29/25 A3003 RMK AO2 SLP169 T02890250
KAPF 211453Z 12003KT 10SM CLR 30/24 A3005 RMK AO2 SLP174 T03000244 53012
KAPF 211553Z 13005KT 10SM SCT026 SCT045 BKN100 31/24 A3004 RMK AO2 SLP171 T03110239
KAPF 211705Z 30008KT 2SM TSRA BR BKN016 BKN026 BKN047 25/23 A3004 RMK AO2 TSB05 T02500233 PNO $
KAPF 211801Z 01005KT 3SM VCTS RA BR FEW018 SCT026 OVC041 25/24 A3003 RMK AO2 LTG DSNT N AND NE TSE01 T02500239 PNO
KAPF 211905Z 00000KT 5SM VCTS -RA BR OVC100 26/25 A3001 RMK AO2 LTG DSNT ALQDS T02610250 PNO
KAPF 212002Z 11003KT 7SM -RA SCT017 BKN095 BKN110 26/24 A3001 RMK AO2 LTG DSNT NE AND E T02560244 PNO
KAPF 212104Z 06008KT 7SM -RA OVC020 26/24 A3001 RMK AO2 T02560244 PNO



Page loaded:  21:10 UTC  |   02:10 PM Pacific  |   03:10 PM Mountain  |   04:10 PM Central  |   05:10 PM Eastern

 

ADVISORIES

FORECASTS

FORECASTS

OBSERVATIONS

USER TOOLS

ABOUT US